Livingston, South Carolina
Current Conditions -  °F | °C
As of 5:53 PM on Wednesday 22 Oct 2014 (Local Time) from KOGB Reporting Station
Clear Clear  
Wind Chill: 66°   Ceiling: Unl
Heat Index: 66°   Visibility: 10mi
Dew Point: 41°   Wind: 6mph
Humidity: 40%   Direction: 320°NW
Pressure: 30.02"   Gusts: NA
Location:  33.538°N, 81.0853°W
Report Text: KOGB 222153Z AUTO 32005KT 10SM CLR 19/05 A3002 RMK AO2 SLP164 T01890050
Loading
Personal Weather Stations






























Interactive Weather Map
Tropical Storm Tracking
New forecast layout! Learn more

10-Day Weather Forecast

Advertisements
Track Severe Weather on mobile